createdAt,value
2022-12-18T00:01:35.663Z,100388.00
2022-12-18T00:04:14.164Z,100392.20
2022-12-18T00:06:42.031Z,100387.60
2022-12-18T00:09:09.941Z,100400.00
2022-12-18T00:11:37.687Z,100400.00
2022-12-18T00:14:05.503Z,100408.00
2022-12-18T00:16:36.381Z,100407.00
2022-12-18T00:19:06.335Z,100397.00
2022-12-18T00:21:34.821Z,100404.00
2022-12-18T00:24:02.989Z,100406.20
2022-12-18T00:26:34.100Z,100409.20
2022-12-18T00:29:14.587Z,100413.20
2022-12-18T00:31:44.046Z,100411.80
2022-12-18T00:34:14.168Z,100419.40
2022-12-18T00:36:42.780Z,100413.80
2022-12-18T00:39:12.682Z,100417.60
2022-12-18T00:41:58.986Z,100426.20
2022-12-18T00:44:26.593Z,100430.80
2022-12-18T00:46:54.418Z,100433.20
2022-12-18T00:49:22.116Z,100439.60
2022-12-18T00:51:50.327Z,100442.80
2022-12-18T00:54:18.797Z,100444.80
2022-12-18T00:56:49.206Z,100456.20
2022-12-18T00:59:19.289Z,100462.20
2022-12-18T01:01:48.264Z,100464.00
2022-12-18T01:04:16.389Z,100473.80
2022-12-18T01:06:44.768Z,100473.20
2022-12-18T01:09:14.556Z,100478.40
2022-12-18T01:11:42.494Z,100478.20
2022-12-18T01:14:10.888Z,100483.00
2022-12-18T01:16:38.630Z,100490.80
2022-12-18T01:19:06.290Z,100482.60
2022-12-18T01:21:34.677Z,100483.80
2022-12-18T01:24:02.431Z,100486.20
2022-12-18T01:26:30.635Z,100479.60
2022-12-18T01:28:58.845Z,100484.00
2022-12-18T01:31:31.541Z,100485.80
2022-12-18T01:34:02.677Z,100487.80
2022-12-18T01:36:34.364Z,100485.40
2022-12-18T01:39:06.935Z,100486.80
2022-12-18T01:41:54.842Z,100494.60
2022-12-18T01:44:59.935Z,100493.40
2022-12-18T01:48:01.538Z,100489.60
2022-12-18T01:50:42.212Z,100495.80
2022-12-18T01:53:19.798Z,100499.00
2022-12-18T01:55:59.833Z,100502.00
2022-12-18T01:58:40.381Z,100499.40
2022-12-18T02:01:09.155Z,100508.00
2022-12-18T02:03:37.908Z,100505.20
2022-12-18T02:06:14.342Z,100516.60
2022-12-18T02:08:52.837Z,100524.60
2022-12-18T02:11:49.527Z,100529.60
2022-12-18T02:15:16.107Z,100529.80
2022-12-18T02:17:58.534Z,100532.40
2022-12-18T02:20:38.194Z,100538.00
2022-12-18T02:23:09.932Z,100537.60
2022-12-18T02:26:15.185Z,100540.60
2022-12-18T02:28:55.764Z,100548.20
2022-12-18T02:31:31.089Z,100555.00
2022-12-18T02:34:05.069Z,100552.20
2022-12-18T02:36:37.135Z,100561.00
2022-12-18T02:39:09.971Z,100561.80
2022-12-18T02:41:39.685Z,100560.00
2022-12-18T02:44:14.672Z,100564.60
2022-12-18T02:46:47.379Z,100562.20
2022-12-18T02:49:55.927Z,100566.00
2022-12-18T02:52:38.465Z,100564.80
2022-12-18T02:55:37.154Z,100573.80
2022-12-18T02:58:19.473Z,100571.80
2022-12-18T03:01:05.412Z,100578.80
2022-12-18T03:03:45.155Z,100571.20
2022-12-18T03:06:27.577Z,100578.00
2022-12-18T03:09:11.775Z,100586.20
2022-12-18T03:12:06.566Z,100588.20
2022-12-18T03:14:39.119Z,100583.80
2022-12-18T03:17:15.764Z,100585.80
2022-12-18T03:19:47.552Z,100585.00
2022-12-18T03:22:17.688Z,100599.20
2022-12-18T03:24:49.352Z,100600.20
2022-12-18T03:27:23.384Z,100605.60
2022-12-18T03:30:08.806Z,100605.60
2022-12-18T03:32:56.483Z,100611.00
2022-12-18T03:35:34.412Z,100608.40
2022-12-18T03:38:02.766Z,100612.80
2022-12-18T03:41:04.814Z,100621.20
2022-12-18T03:44:01.809Z,100616.40
2022-12-18T03:46:50.174Z,100615.00
2022-12-18T03:49:38.397Z,100621.00
2022-12-18T03:52:34.148Z,100619.60
2022-12-18T03:55:06.517Z,100630.20
2022-12-18T03:57:34.851Z,100634.40
2022-12-18T04:00:22.853Z,100634.80
2022-12-18T04:02:55.175Z,100636.60
2022-12-18T04:05:26.556Z,100641.00
2022-12-18T04:07:57.193Z,100639.20
2022-12-18T04:10:24.842Z,100644.40
2022-12-18T04:12:57.846Z,100645.40
2022-12-18T04:15:25.887Z,100646.20
2022-12-18T04:17:53.673Z,100652.80
2022-12-18T04:20:21.474Z,100649.60
2022-12-18T04:22:49.174Z,100648.60
2022-12-18T04:25:16.910Z,100652.20
2022-12-18T04:27:44.559Z,100651.60
2022-12-18T04:30:12.770Z,100659.80
2022-12-18T04:32:40.431Z,100656.60
2022-12-18T04:35:11.567Z,100657.60
2022-12-18T04:37:39.218Z,100662.40
2022-12-18T04:40:07.782Z,100662.60
2022-12-18T04:42:35.629Z,100669.80
2022-12-18T04:45:04.252Z,100663.00
2022-12-18T04:47:31.981Z,100674.40
2022-12-18T04:49:59.733Z,100684.00
2022-12-18T04:52:27.453Z,100684.60
2022-12-18T04:54:55.055Z,100680.00
2022-12-18T04:57:22.774Z,100677.40
2022-12-18T04:59:50.546Z,100681.00
2022-12-18T05:02:18.355Z,100684.60
2022-12-18T05:04:46.202Z,100686.60
2022-12-18T05:07:13.892Z,100691.40
2022-12-18T05:09:41.867Z,100692.80
2022-12-18T05:12:09.544Z,100694.00
2022-12-18T05:14:37.392Z,100696.00
2022-12-18T05:17:05.106Z,100703.20
2022-12-18T05:19:32.940Z,100699.40
2022-12-18T05:22:00.711Z,100708.60
2022-12-18T05:24:28.542Z,100711.40
2022-12-18T05:26:56.247Z,100710.00
2022-12-18T05:29:24.015Z,100717.80
2022-12-18T05:31:52.010Z,100716.80
2022-12-18T05:34:19.762Z,100719.20
2022-12-18T05:36:47.522Z,100720.40
2022-12-18T05:39:15.256Z,100725.40
2022-12-18T05:41:42.981Z,100731.20
2022-12-18T05:44:11.176Z,100730.80
2022-12-18T05:46:38.933Z,100735.60
2022-12-18T05:49:06.631Z,100740.00
2022-12-18T05:51:34.372Z,100742.40
2022-12-18T05:54:02.003Z,100742.80
2022-12-18T05:56:29.625Z,100742.20
2022-12-18T05:58:57.292Z,100743.00
2022-12-18T06:01:27.643Z,100736.40
2022-12-18T06:03:56.465Z,100744.00
2022-12-18T06:06:28.329Z,100745.80
2022-12-18T06:08:57.597Z,100753.40
2022-12-18T06:11:27.937Z,100752.60
2022-12-18T06:13:59.191Z,100753.80
2022-12-18T06:16:31.532Z,100756.40
2022-12-18T06:19:05.943Z,100758.80
2022-12-18T06:21:35.553Z,100762.00
2022-12-18T06:24:04.209Z,100761.00
2022-12-18T06:26:32.002Z,100764.00
2022-12-18T06:28:59.624Z,100768.60
2022-12-18T06:31:27.579Z,100772.40
2022-12-18T06:33:55.669Z,100783.40
2022-12-18T06:36:23.544Z,100788.20
2022-12-18T06:38:51.365Z,100787.00
2022-12-18T06:41:22.134Z,100798.80
2022-12-18T06:43:50.509Z,100799.60
2022-12-18T06:46:18.297Z,100808.00
2022-12-18T06:48:51.233Z,100814.00
2022-12-18T06:51:21.585Z,100816.40
2022-12-18T06:53:49.576Z,100812.00
2022-12-18T06:56:17.810Z,100823.60
2022-12-18T06:58:45.531Z,100816.80
2022-12-18T07:01:14.859Z,100820.60
2022-12-18T07:03:44.579Z,100820.40
2022-12-18T07:06:19.672Z,100823.00
2022-12-18T07:08:48.771Z,100830.60
2022-12-18T07:11:18.491Z,100837.80
2022-12-18T07:13:47.212Z,100837.40
2022-12-18T07:16:24.888Z,100835.20
2022-12-18T07:18:55.953Z,100839.00
2022-12-18T07:21:26.128Z,100839.00
2022-12-18T07:23:53.890Z,100854.40
2022-12-18T07:26:23.157Z,100853.00
2022-12-18T07:28:51.638Z,100862.00
2022-12-18T07:31:22.565Z,100868.20
2022-12-18T07:33:51.947Z,100869.80
2022-12-18T07:36:20.818Z,100874.20
2022-12-18T07:38:50.189Z,100873.60
2022-12-18T07:41:19.561Z,100880.80
2022-12-18T07:43:48.369Z,100884.20
2022-12-18T07:46:17.459Z,100882.80
2022-12-18T07:48:49.598Z,100879.60
2022-12-18T07:51:19.571Z,100877.60
2022-12-18T07:53:48.764Z,100884.60
2022-12-18T07:56:27.736Z,100877.20
2022-12-18T07:58:59.893Z,100873.20
2022-12-18T08:01:28.598Z,100867.60
2022-12-18T08:03:56.589Z,100866.00
2022-12-18T08:06:24.947Z,100870.20
2022-12-18T08:08:55.064Z,100867.40
2022-12-18T08:11:25.670Z,100867.20
2022-12-18T08:13:54.301Z,100876.00
2022-12-18T08:16:24.365Z,100876.40
2022-12-18T08:18:54.958Z,100887.80
2022-12-18T08:21:27.617Z,100886.60
2022-12-18T08:23:58.726Z,100890.00
2022-12-18T08:26:29.616Z,100889.60
2022-12-18T08:28:59.536Z,100885.80
2022-12-18T08:31:30.702Z,100897.20
2022-12-18T08:33:58.695Z,100896.00
2022-12-18T08:36:27.040Z,100894.40
2022-12-18T08:38:55.491Z,100904.80
2022-12-18T08:41:23.367Z,100908.60
2022-12-18T08:44:10.296Z,100901.60
2022-12-18T08:46:44.271Z,100913.80
2022-12-18T08:49:13.145Z,100920.40
2022-12-18T08:51:41.527Z,100920.40
2022-12-18T08:54:14.924Z,100930.40
2022-12-18T08:56:42.679Z,100939.60
2022-12-18T08:59:14.447Z,100934.80
2022-12-18T09:01:48.219Z,100927.80
2022-12-18T09:04:16.858Z,100935.80
2022-12-18T09:06:44.541Z,100936.20
2022-12-18T09:09:12.598Z,100939.40
2022-12-18T09:11:40.314Z,100934.00
2022-12-18T09:14:08.066Z,100944.00
2022-12-18T09:16:36.056Z,100955.20
2022-12-18T09:19:06.747Z,100945.40
2022-12-18T09:21:43.346Z,100943.80
2022-12-18T09:24:16.177Z,100942.00
2022-12-18T09:26:46.962Z,100941.80
2022-12-18T09:29:18.769Z,100941.80
2022-12-18T09:31:47.706Z,100946.20
2022-12-18T09:34:16.258Z,100949.60
2022-12-18T09:36:44.419Z,100947.00
2022-12-18T09:39:12.554Z,100945.00
2022-12-18T09:41:54.808Z,100947.80
2022-12-18T09:44:47.541Z,100956.80
2022-12-18T09:47:27.129Z,100950.60
2022-12-18T09:50:06.358Z,100953.00
2022-12-18T09:52:45.992Z,100953.60
2022-12-18T09:55:35.124Z,100950.20
2022-12-18T09:58:10.720Z,100949.40
2022-12-18T10:00:38.584Z,100950.00
2022-12-18T10:03:16.752Z,100950.40
2022-12-18T10:06:05.737Z,100946.20
2022-12-18T10:09:05.980Z,100945.40
2022-12-18T10:12:11.845Z,100932.00
2022-12-18T10:14:58.532Z,100923.80
2022-12-18T10:17:49.185Z,100916.00
2022-12-18T10:20:45.967Z,100920.00
2022-12-18T10:23:42.476Z,100924.20
2022-12-18T10:26:14.232Z,100925.00
2022-12-18T10:28:43.449Z,100919.40
2022-12-18T10:31:20.170Z,100915.20
2022-12-18T10:33:48.052Z,100915.20
2022-12-18T10:36:16.083Z,100914.80
2022-12-18T10:38:44.533Z,100905.00
2022-12-18T10:41:27.512Z,100902.40
2022-12-18T10:44:20.117Z,100906.60
2022-12-18T10:46:52.013Z,100894.40
2022-12-18T10:49:33.850Z,100886.00
2022-12-18T10:52:21.175Z,100887.60
2022-12-18T10:55:03.613Z,100887.20
2022-12-18T10:57:37.010Z,100878.20
2022-12-18T11:00:30.206Z,100880.20
2022-12-18T11:02:58.960Z,100884.80
2022-12-18T11:05:33.923Z,100876.20
2022-12-18T11:08:02.830Z,100876.40
2022-12-18T11:10:38.719Z,100884.60
2022-12-18T11:13:23.689Z,100882.00
2022-12-18T11:15:52.334Z,100892.60
2022-12-18T11:18:34.079Z,100890.40
2022-12-18T11:21:13.861Z,100890.20
2022-12-18T11:23:54.451Z,100889.60
2022-12-18T11:26:35.796Z,100894.00
2022-12-18T11:29:18.550Z,100896.00
2022-12-18T11:31:47.695Z,100892.20
2022-12-18T11:34:32.678Z,100895.00
2022-12-18T11:37:04.462Z,100903.00
2022-12-18T11:39:41.613Z,100894.60
2022-12-18T11:42:51.178Z,100898.60
2022-12-18T11:45:29.394Z,100898.40
2022-12-18T11:48:06.828Z,100903.40
2022-12-18T11:50:49.630Z,100899.40
2022-12-18T11:53:17.876Z,100909.80
2022-12-18T11:56:23.885Z,100908.20
2022-12-18T11:59:31.564Z,100904.60
2022-12-18T12:02:30.341Z,100903.00
2022-12-18T12:05:18.636Z,100907.60
2022-12-18T12:08:13.377Z,100909.20
2022-12-18T12:11:14.112Z,100903.80
2022-12-18T12:13:50.162Z,100918.60
2022-12-18T12:16:26.827Z,100910.60
2022-12-18T12:19:22.991Z,100919.00
2022-12-18T12:22:09.904Z,100913.20
2022-12-18T12:25:22.275Z,100919.40
2022-12-18T12:28:25.866Z,100921.00
2022-12-18T12:31:20.928Z,100920.80
2022-12-18T12:34:07.881Z,100919.40
2022-12-18T12:36:38.271Z,100918.80
2022-12-18T12:39:14.638Z,100924.60
2022-12-18T12:42:06.380Z,100929.80
2022-12-18T12:44:45.380Z,100926.60
2022-12-18T12:47:36.710Z,100932.20
2022-12-18T12:50:16.440Z,100936.40
2022-12-18T12:52:50.691Z,100927.80
2022-12-18T12:55:30.792Z,100930.20
2022-12-18T12:58:19.736Z,100926.40
2022-12-18T13:01:09.711Z,100921.80
2022-12-18T13:04:06.070Z,100916.00
2022-12-18T13:07:05.364Z,100926.60
2022-12-18T13:09:36.690Z,100929.80
2022-12-18T13:12:33.339Z,100938.60
2022-12-18T13:15:26.740Z,100945.20
2022-12-18T13:18:16.229Z,100939.60
2022-12-18T13:21:17.137Z,100945.80
2022-12-18T13:23:45.847Z,100937.20
2022-12-18T13:26:24.753Z,100941.80
2022-12-18T13:28:58.511Z,100945.20
2022-12-18T13:31:42.683Z,100942.20
2022-12-18T13:34:27.603Z,100945.40
2022-12-18T13:37:32.986Z,100940.40
2022-12-18T13:40:00.807Z,100943.00
2022-12-18T13:43:09.216Z,100940.40
2022-12-18T13:46:04.203Z,100940.60
2022-12-18T13:48:39.328Z,100936.00
2022-12-18T13:51:11.941Z,100936.20
2022-12-18T13:53:49.068Z,100937.80
2022-12-18T13:56:29.463Z,100938.80
2022-12-18T13:59:35.865Z,100933.80
2022-12-18T14:02:18.707Z,100938.00
2022-12-18T14:04:48.407Z,100939.40
2022-12-18T14:07:31.358Z,100941.80
2022-12-18T14:10:25.906Z,100949.80
2022-12-18T14:12:59.184Z,100941.80
2022-12-18T14:15:36.693Z,100933.80
2022-12-18T14:18:36.327Z,100936.60
2022-12-18T14:21:06.391Z,100938.20
2022-12-18T14:23:43.469Z,100942.40
2022-12-18T14:26:30.912Z,100940.00
2022-12-18T14:29:02.492Z,100941.40
2022-12-18T14:31:32.865Z,100938.00
2022-12-18T14:34:00.631Z,100948.60
2022-12-18T14:36:30.632Z,100949.20
2022-12-18T14:39:00.327Z,100943.20
2022-12-18T14:41:29.459Z,100945.00
2022-12-18T14:44:08.184Z,100954.40
2022-12-18T14:46:44.404Z,100959.60
2022-12-18T14:49:34.976Z,100961.60
2022-12-18T14:52:14.337Z,100970.60
2022-12-18T14:54:48.406Z,100967.80
2022-12-18T14:57:24.971Z,100972.40
2022-12-18T14:59:52.940Z,100982.60
2022-12-18T15:02:29.686Z,100973.40
2022-12-18T15:05:12.969Z,100975.80
2022-12-18T15:07:52.735Z,100979.20
2022-12-18T15:10:23.651Z,100978.20
2022-12-18T15:13:23.028Z,100985.00
2022-12-18T15:15:52.611Z,100991.40
2022-12-18T15:18:32.969Z,100987.80
2022-12-18T15:21:10.736Z,100988.80
2022-12-18T15:23:44.812Z,100999.80
2022-12-18T15:26:16.589Z,101005.60
2022-12-18T15:28:56.420Z,101004.80
2022-12-18T15:31:35.724Z,101007.80
2022-12-18T15:34:18.995Z,101008.40
2022-12-18T15:36:46.971Z,100999.20
2022-12-18T15:39:14.807Z,100996.20
2022-12-18T15:42:02.528Z,101003.60
2022-12-18T15:44:30.320Z,100996.00
2022-12-18T15:46:58.992Z,100998.60
2022-12-18T15:49:26.925Z,101003.80
2022-12-18T15:52:03.853Z,101007.00
2022-12-18T15:54:50.505Z,101011.60
2022-12-18T15:57:24.267Z,101014.40
2022-12-18T16:00:00.218Z,101019.80
2022-12-18T16:02:29.703Z,101014.80
2022-12-18T16:04:57.630Z,101012.00
2022-12-18T16:07:28.147Z,101014.60
2022-12-18T16:09:58.866Z,101012.40
2022-12-18T16:12:28.056Z,101014.20
2022-12-18T16:14:55.864Z,101013.40
2022-12-18T16:17:23.753Z,101012.40
2022-12-18T16:19:51.515Z,101007.20
2022-12-18T16:22:26.667Z,101005.20
2022-12-18T16:24:56.404Z,101001.20
2022-12-18T16:27:25.679Z,100998.20
2022-12-18T16:29:53.418Z,101003.20
2022-12-18T16:32:23.607Z,101001.40
2022-12-18T16:34:52.267Z,100999.80
2022-12-18T16:37:20.063Z,101002.80
2022-12-18T16:39:47.746Z,100999.40
2022-12-18T16:42:20.702Z,100999.80
2022-12-18T16:44:50.512Z,100996.00
2022-12-18T16:47:19.605Z,100997.80
2022-12-18T16:49:47.534Z,100989.60
2022-12-18T16:52:15.604Z,100985.80
2022-12-18T16:54:44.235Z,100981.20
2022-12-18T16:57:16.286Z,100983.20
2022-12-18T16:59:44.694Z,100982.60
2022-12-18T17:02:27.375Z,100984.20
2022-12-18T17:04:58.483Z,100970.20
2022-12-18T17:07:28.222Z,100970.40
2022-12-18T17:09:56.671Z,100973.00
2022-12-18T17:12:24.938Z,100970.60
2022-12-18T17:14:52.653Z,100960.60
2022-12-18T17:17:22.237Z,100967.00
2022-12-18T17:19:52.159Z,100973.00
2022-12-18T17:22:23.516Z,100971.20
2022-12-18T17:24:51.539Z,100968.20
2022-12-18T17:27:19.279Z,100971.60
2022-12-18T17:29:48.674Z,100980.00
2022-12-18T17:32:18.316Z,100983.80
2022-12-18T17:34:46.504Z,100991.80
2022-12-18T17:37:15.509Z,100983.20
2022-12-18T17:39:43.505Z,100988.60
2022-12-18T17:42:14.944Z,100989.40
2022-12-18T17:44:44.927Z,100994.60
2022-12-18T17:47:13.741Z,100991.00
2022-12-18T17:49:41.472Z,100991.20
2022-12-18T17:52:09.727Z,100991.60
2022-12-18T17:54:39.845Z,100994.80
2022-12-18T17:57:08.295Z,100994.20
2022-12-18T17:59:36.056Z,100990.40
2022-12-18T18:02:03.911Z,100987.00
2022-12-18T18:04:32.572Z,100993.00
2022-12-18T18:07:00.275Z,100985.00
2022-12-18T18:09:27.977Z,100979.60
2022-12-18T18:12:14.251Z,100982.20
2022-12-18T18:14:42.139Z,100987.00
2022-12-18T18:17:09.844Z,100986.40
2022-12-18T18:19:37.514Z,100994.00
2022-12-18T18:22:07.119Z,100995.20
2022-12-18T18:24:34.783Z,100995.00
2022-12-18T18:27:02.595Z,101003.00
2022-12-18T18:29:30.603Z,101000.40
2022-12-18T18:31:59.332Z,101002.00
2022-12-18T18:34:30.691Z,101003.80
2022-12-18T18:36:59.139Z,101000.60
2022-12-18T18:39:27.284Z,100997.60
2022-12-18T18:41:55.534Z,101006.80
2022-12-18T18:44:24.816Z,101013.00
2022-12-18T18:46:55.942Z,101015.40
2022-12-18T18:49:27.719Z,101015.00
2022-12-18T18:51:58.149Z,101008.40
2022-12-18T18:54:26.588Z,101009.60
2022-12-18T18:59:42.751Z,101021.40
2022-12-18T19:02:14.211Z,101021.60
2022-12-18T19:04:46.041Z,101027.40
2022-12-18T19:07:29.381Z,101024.00
2022-12-18T19:10:05.270Z,101008.40
2022-12-18T19:12:53.184Z,101013.80
2022-12-18T19:15:21.568Z,101015.00
2022-12-18T19:17:49.451Z,101017.40
2022-12-18T19:20:18.320Z,101026.80
2022-12-18T19:22:54.916Z,101015.40
2022-12-18T19:25:40.327Z,101018.20
2022-12-18T19:28:13.546Z,101019.80
2022-12-18T19:30:58.630Z,101032.60
2022-12-18T19:33:45.390Z,101042.40
2022-12-18T19:36:21.267Z,101034.00
2022-12-18T19:38:50.947Z,101030.60
2022-12-18T19:41:20.665Z,101018.60
2022-12-18T19:43:49.525Z,101009.80
2022-12-18T19:46:21.390Z,100995.40
2022-12-18T19:48:50.603Z,101001.80
2022-12-18T19:51:23.814Z,101001.20
2022-12-18T19:53:58.096Z,101011.00
2022-12-18T19:56:32.224Z,101009.20
2022-12-18T19:59:01.033Z,101007.00
2022-12-18T20:01:30.366Z,101005.80
2022-12-18T20:03:59.630Z,101004.20
2022-12-18T20:06:35.303Z,100996.80
2022-12-18T20:09:07.254Z,101000.40
2022-12-18T20:11:39.638Z,101009.40
2022-12-18T20:14:11.927Z,101009.20
2022-12-18T20:16:40.572Z,100999.20
2022-12-18T20:19:10.876Z,100997.60
2022-12-18T20:21:39.014Z,100998.20
2022-12-18T20:24:08.358Z,100995.20
2022-12-18T20:26:36.157Z,101003.20
2022-12-18T20:29:04.540Z,100991.00
2022-12-18T20:31:32.595Z,100988.00
2022-12-18T20:34:01.687Z,100992.80
2022-12-18T20:36:32.874Z,100993.00
2022-12-18T20:39:05.213Z,100992.20
2022-12-18T20:41:37.908Z,100983.00
2022-12-18T20:44:21.529Z,100986.40
2022-12-18T20:46:55.297Z,100984.20
2022-12-18T20:49:25.554Z,100989.80
2022-12-18T20:51:56.340Z,100994.60
2022-12-18T20:54:27.220Z,100985.20
2022-12-18T20:56:56.111Z,100992.40
2022-12-18T20:59:25.766Z,100990.00
2022-12-18T21:01:54.737Z,100987.60
2022-12-18T21:04:23.222Z,100989.20
2022-12-18T21:06:55.791Z,100985.60
2022-12-18T21:09:38.203Z,100983.20
2022-12-18T21:12:40.470Z,100982.60
2022-12-18T21:15:12.014Z,100979.20
2022-12-18T21:17:44.774Z,100977.20
2022-12-18T21:20:17.841Z,100976.20
2022-12-18T21:22:49.147Z,100978.80
2022-12-18T21:25:17.043Z,100988.20
2022-12-18T21:27:44.736Z,100982.00
2022-12-18T21:30:14.149Z,100980.00
2022-12-18T21:32:41.860Z,100988.00
2022-12-18T21:35:09.735Z,100985.60
2022-12-18T21:37:37.478Z,100982.80
2022-12-18T21:40:06.253Z,100984.60
2022-12-18T21:42:52.675Z,100976.80
2022-12-18T21:45:20.410Z,100971.20
2022-12-18T21:47:48.111Z,100974.60
2022-12-18T21:50:15.912Z,100973.00
2022-12-18T21:52:43.695Z,100972.20
2022-12-18T21:55:11.381Z,100967.60
2022-12-18T21:57:39.501Z,100975.60
2022-12-18T22:00:18.510Z,100970.60
2022-12-18T22:03:01.203Z,100982.40
2022-12-18T22:05:36.936Z,100982.80
2022-12-18T22:08:06.641Z,100980.20
2022-12-18T22:10:34.928Z,100972.20
2022-12-18T22:13:03.853Z,100972.60
2022-12-18T22:15:31.615Z,100961.40
2022-12-18T22:17:59.860Z,100962.00
2022-12-18T22:20:29.990Z,100962.20
2022-12-18T22:23:02.872Z,100964.20
2022-12-18T22:25:35.466Z,100966.00
2022-12-18T22:28:25.472Z,100963.20
2022-12-18T22:30:59.004Z,100965.40
2022-12-18T22:33:28.424Z,100955.00
2022-12-18T22:35:56.268Z,100949.00
2022-12-18T22:38:23.914Z,100952.60
2022-12-18T22:40:51.611Z,100944.80
2022-12-18T22:43:19.362Z,100956.00
2022-12-18T22:45:48.965Z,100953.60
2022-12-18T22:48:16.759Z,100949.60
2022-12-18T22:50:44.370Z,100944.60
2022-12-18T22:53:12.367Z,100940.60
2022-12-18T22:55:40.024Z,100937.00
2022-12-18T22:58:07.692Z,100946.40
2022-12-18T23:00:35.329Z,100960.80
2022-12-18T23:03:03.139Z,100956.00
2022-12-18T23:05:31.476Z,100958.60
2022-12-18T23:07:59.737Z,100955.40
2022-12-18T23:10:28.438Z,100953.80
2022-12-18T23:12:56.296Z,100960.80
2022-12-18T23:15:27.831Z,100959.80
2022-12-18T23:17:58.766Z,100956.00
2022-12-18T23:20:27.823Z,100945.00
2022-12-18T23:22:55.606Z,100945.00
2022-12-18T23:25:23.690Z,100943.20
2022-12-18T23:27:51.404Z,100938.40
2022-12-18T23:30:19.145Z,100944.20
2022-12-18T23:32:47.143Z,100949.00
2022-12-18T23:35:15.950Z,100937.80
2022-12-18T23:38:00.503Z,100936.60
2022-12-18T23:40:29.984Z,100928.60
2022-12-18T23:43:00.067Z,100926.60
2022-12-18T23:45:28.005Z,100933.60
2022-12-18T23:47:55.684Z,100928.20
2022-12-18T23:50:24.045Z,100920.60
2022-12-18T23:53:04.797Z,100911.80
2022-12-18T23:55:39.036Z,100911.20
2022-12-18T23:58:18.634Z,100913.40
